createdAt,value
2019-05-14T00:00:21.874Z,13.65
2019-05-14T00:01:26.552Z,13.57
2019-05-14T00:02:31.774Z,13.57
2019-05-14T00:03:36.323Z,13.57
2019-05-14T00:04:42.378Z,13.57
2019-05-14T00:05:46.909Z,13.57
2019-05-14T00:06:52.013Z,13.60
2019-05-14T00:07:56.577Z,13.61
2019-05-14T00:09:01.516Z,13.61
2019-05-14T00:10:07.779Z,13.59
2019-05-14T00:11:13.013Z,13.60
2019-05-14T00:12:17.784Z,13.60
2019-05-14T00:13:22.326Z,13.60
2019-05-14T00:14:37.239Z,13.60
2019-05-14T00:15:33.028Z,13.61
2019-05-14T00:16:37.388Z,13.60
2019-05-14T00:17:42.159Z,13.57
2019-05-14T00:18:46.802Z,13.55
2019-05-14T00:20:05.527Z,13.54
2019-05-14T00:20:57.588Z,13.53
2019-05-14T00:22:02.245Z,13.52
2019-05-14T00:23:06.612Z,13.50
2019-05-14T00:24:11.514Z,13.49
2019-05-14T00:25:16.386Z,13.49
2019-05-14T00:26:21.589Z,13.48
2019-05-14T00:27:26.198Z,13.47
2019-05-14T00:28:31.710Z,13.45
2019-05-14T00:29:36.631Z,13.43
2019-05-14T00:30:42.266Z,13.36
2019-05-14T00:31:47.140Z,13.35
2019-05-14T00:32:52.147Z,13.31
2019-05-14T00:33:56.648Z,13.26
2019-05-14T00:35:02.149Z,13.26
2019-05-14T00:36:06.628Z,13.22
2019-05-14T00:37:11.706Z,13.23
2019-05-14T00:38:16.245Z,13.18
2019-05-14T00:39:21.383Z,13.17
2019-05-14T00:40:25.913Z,13.16
2019-05-14T00:41:31.228Z,13.18
2019-05-14T00:42:35.696Z,13.18
2019-05-14T00:43:41.574Z,13.14
2019-05-14T00:44:54.282Z,13.15
2019-05-14T00:45:52.797Z,13.15
2019-05-14T00:46:58.202Z,13.14
2019-05-14T00:48:02.826Z,13.16
2019-05-14T00:49:07.212Z,13.18
2019-05-14T00:50:12.054Z,13.16
2019-05-14T00:51:16.563Z,13.16
2019-05-14T00:52:22.221Z,13.16
2019-05-14T00:53:26.718Z,13.12
2019-05-14T00:54:32.231Z,13.13
2019-05-14T00:55:36.700Z,13.11
2019-05-14T00:56:41.861Z,13.09
2019-05-14T00:57:46.561Z,13.10
2019-05-14T00:58:52.381Z,13.08
2019-05-14T00:59:56.716Z,12.95
2019-05-14T01:01:01.775Z,13.05
2019-05-14T01:02:07.573Z,13.02
2019-05-14T01:03:12.302Z,13.05
2019-05-14T01:04:16.692Z,13.04
2019-05-14T01:05:21.652Z,13.05
2019-05-14T01:06:26.096Z,13.06
2019-05-14T01:07:31.656Z,13.06
2019-05-14T01:08:36.249Z,13.06
2019-05-14T01:09:42.086Z,13.04
2019-05-14T01:10:46.719Z,13.04
2019-05-14T01:11:51.437Z,13.02
2019-05-14T01:12:55.837Z,13.01
2019-05-14T01:14:01.768Z,12.99
2019-05-14T01:15:10.806Z,12.98
2019-05-14T01:16:13.776Z,12.98
2019-05-14T01:17:18.165Z,12.93
2019-05-14T01:18:22.734Z,12.93
2019-05-14T01:19:27.115Z,12.94
2019-05-14T01:20:32.100Z,12.93
2019-05-14T01:21:36.504Z,12.94
2019-05-14T01:22:42.284Z,12.92
2019-05-14T01:23:46.787Z,12.92
2019-05-14T01:24:52.196Z,12.92
2019-05-14T01:25:56.737Z,12.91
2019-05-14T01:27:01.826Z,12.90
2019-05-14T01:28:06.287Z,12.88
2019-05-14T01:29:12.163Z,12.88
2019-05-14T01:30:16.697Z,12.84
2019-05-14T01:31:22.066Z,12.83
2019-05-14T01:32:26.564Z,12.83
2019-05-14T01:33:31.820Z,12.81
2019-05-14T01:34:36.521Z,12.82
2019-05-14T01:35:42.066Z,12.82
2019-05-14T01:36:46.740Z,12.83
2019-05-14T01:37:52.190Z,12.81
2019-05-14T01:38:57.726Z,12.78
2019-05-14T01:40:04.205Z,12.78
2019-05-14T01:41:08.573Z,12.75
2019-05-14T01:42:13.248Z,12.76
2019-05-14T01:43:17.765Z,12.74
2019-05-14T01:44:22.353Z,12.75
2019-05-14T01:45:28.345Z,12.75
2019-05-14T01:46:33.221Z,12.70
2019-05-14T01:47:37.582Z,12.70
2019-05-14T01:48:42.143Z,12.69
2019-05-14T01:49:46.588Z,12.65
2019-05-14T01:50:52.066Z,12.65
2019-05-14T01:51:56.736Z,12.66
2019-05-14T01:53:01.406Z,12.64
2019-05-14T01:54:05.749Z,12.63
2019-05-14T01:55:11.448Z,12.64
2019-05-14T01:56:15.888Z,12.63
2019-05-14T01:57:21.966Z,12.63
2019-05-14T01:58:26.534Z,12.62
2019-05-14T01:59:32.217Z,12.61
2019-05-14T02:00:36.708Z,12.59
2019-05-14T02:01:41.755Z,12.59
2019-05-14T02:02:46.152Z,12.59
2019-05-14T02:03:51.795Z,12.58
2019-05-14T02:04:56.376Z,12.56
2019-05-14T02:06:01.396Z,12.56
2019-05-14T02:07:05.980Z,12.55
2019-05-14T02:08:12.115Z,12.54
2019-05-14T02:09:16.572Z,12.53
2019-05-14T02:10:22.247Z,12.52
2019-05-14T02:11:26.697Z,12.50
2019-05-14T02:12:31.637Z,12.49
2019-05-14T02:13:37.132Z,12.48
2019-05-14T02:14:42.377Z,12.45
2019-05-14T02:15:46.984Z,12.44
2019-05-14T02:16:52.520Z,12.45
2019-05-14T02:17:56.879Z,12.43
2019-05-14T02:19:01.550Z,12.42
2019-05-14T02:20:06.281Z,12.37
2019-05-14T02:21:11.797Z,12.36
2019-05-14T02:22:16.284Z,12.34
2019-05-14T02:23:22.657Z,12.33
2019-05-14T02:24:26.944Z,12.33
2019-05-14T02:25:32.171Z,12.33
2019-05-14T02:26:36.626Z,12.32
2019-05-14T02:27:41.542Z,12.32
2019-05-14T02:28:45.916Z,12.23
2019-05-14T02:29:51.844Z,12.22
2019-05-14T02:31:02.657Z,12.21
2019-05-14T02:32:02.786Z,12.20
2019-05-14T02:33:09.252Z,12.18
2019-05-14T02:34:13.374Z,12.18
2019-05-14T02:35:20.181Z,12.18
2019-05-14T02:36:24.100Z,12.15
2019-05-14T02:37:30.068Z,12.15
2019-05-14T02:38:34.847Z,12.14
2019-05-14T02:39:41.053Z,12.15
2019-05-14T02:40:45.515Z,12.15
2019-05-14T02:41:50.141Z,12.14
2019-05-14T02:42:54.621Z,12.13
2019-05-14T02:43:59.496Z,12.11
2019-05-14T02:45:08.935Z,12.11
2019-05-14T02:46:17.177Z,12.11
2019-05-14T02:47:19.719Z,12.08
2019-05-14T02:48:24.362Z,12.07
2019-05-14T02:49:29.960Z,12.04
2019-05-14T02:50:34.662Z,12.03
2019-05-14T02:51:39.360Z,12.03
2019-05-14T02:52:43.778Z,12.02
2019-05-14T02:53:49.858Z,12.03
2019-05-14T02:54:54.297Z,12.00
2019-05-14T02:55:59.495Z,11.98
2019-05-14T02:57:04.918Z,11.99
2019-05-14T02:58:10.099Z,11.96
2019-05-14T02:59:14.628Z,11.96
2019-05-14T03:00:19.494Z,11.92
2019-05-14T03:01:23.923Z,11.92
2019-05-14T03:02:29.698Z,11.93
2019-05-14T03:03:34.239Z,11.90
2019-05-14T03:04:39.766Z,11.90
2019-05-14T03:05:44.311Z,11.88
2019-05-14T03:06:49.875Z,11.87
2019-05-14T03:07:54.505Z,11.87
2019-05-14T03:09:00.049Z,11.83
2019-05-14T03:10:09.620Z,11.79
2019-05-14T03:11:13.753Z,11.78
2019-05-14T03:12:19.362Z,11.80
2019-05-14T03:13:24.127Z,11.78
2019-05-14T03:14:30.113Z,11.74
2019-05-14T03:15:34.822Z,11.73
2019-05-14T03:16:40.756Z,11.68
2019-05-14T03:17:45.461Z,11.67
2019-05-14T03:18:50.440Z,11.65
2019-05-14T03:19:55.208Z,11.63
2019-05-14T03:21:00.814Z,11.63
2019-05-14T03:22:05.816Z,11.62
2019-05-14T03:23:18.046Z,11.61
2019-05-14T03:24:19.445Z,11.63
2019-05-14T03:25:22.874Z,11.61
2019-05-14T03:26:29.453Z,11.61
2019-05-14T03:27:33.617Z,11.62
2019-05-14T03:28:39.932Z,11.57
2019-05-14T03:29:44.667Z,11.57
2019-05-14T03:30:51.975Z,11.59
2019-05-14T03:31:55.400Z,11.58
2019-05-14T03:33:02.625Z,11.59
2019-05-14T03:34:06.027Z,11.59
2019-05-14T03:35:13.504Z,11.60
2019-05-14T03:36:23.953Z,11.61
2019-05-14T03:37:24.412Z,11.58
2019-05-14T03:38:30.226Z,11.59
2019-05-14T03:39:35.192Z,11.59
2019-05-14T03:40:40.119Z,11.56
2019-05-14T03:41:45.217Z,11.56
2019-05-14T03:42:49.567Z,11.56
2019-05-14T03:43:55.213Z,11.56
2019-05-14T03:44:59.957Z,11.55
2019-05-14T03:46:05.513Z,11.55
2019-05-14T03:47:10.660Z,11.53
2019-05-14T03:48:18.989Z,11.53
2019-05-14T03:49:22.253Z,11.54
2019-05-14T03:50:29.686Z,11.53
2019-05-14T03:51:34.156Z,11.53
2019-05-14T03:52:39.915Z,11.49
2019-05-14T03:53:59.965Z,11.49
2019-05-14T03:54:51.119Z,11.50
2019-05-14T03:55:55.593Z,11.50
2019-05-14T03:57:00.592Z,11.49
2019-05-14T03:58:05.056Z,11.49
2019-05-14T03:59:10.161Z,11.48
2019-05-14T04:00:14.646Z,11.49
2019-05-14T04:01:20.157Z,11.49
2019-05-14T04:02:24.904Z,11.48
2019-05-14T04:03:30.794Z,11.48
2019-05-14T04:04:35.155Z,11.48
2019-05-14T04:05:40.264Z,11.48
2019-05-14T04:06:44.849Z,11.48
2019-05-14T04:07:50.440Z,11.49
2019-05-14T04:08:55.550Z,11.48
2019-05-14T04:10:00.142Z,11.47
2019-05-14T04:11:04.669Z,11.41
2019-05-14T04:12:10.311Z,11.38
2019-05-14T04:13:15.506Z,11.38
2019-05-14T04:14:20.373Z,11.39
2019-05-14T04:15:24.966Z,11.39
2019-05-14T04:16:29.606Z,11.39
2019-05-14T04:17:38.820Z,11.40
2019-05-14T04:18:41.902Z,11.32
2019-05-14T04:19:49.260Z,11.41
2019-05-14T04:20:52.705Z,11.41
2019-05-14T04:21:59.883Z,11.42
2019-05-14T04:23:03.344Z,11.42
2019-05-14T04:24:09.742Z,11.42
2019-05-14T04:25:13.961Z,11.42
2019-05-14T04:26:20.181Z,11.39
2019-05-14T04:27:29.585Z,11.39
2019-05-14T04:28:34.633Z,11.42
2019-05-14T04:29:41.597Z,11.41
2019-05-14T04:30:49.120Z,11.43
2019-05-14T04:31:52.312Z,11.38
2019-05-14T04:32:59.356Z,11.39
2019-05-14T04:34:04.941Z,11.39
2019-05-14T04:35:09.696Z,11.37
2019-05-14T04:36:14.713Z,11.37
2019-05-14T04:37:20.112Z,11.39
2019-05-14T04:38:24.963Z,11.42
2019-05-14T04:39:31.508Z,11.42
2019-05-14T04:40:36.085Z,11.39
2019-05-14T04:41:40.520Z,11.43
2019-05-14T04:42:45.175Z,11.45
2019-05-14T04:43:50.424Z,11.43
2019-05-14T04:44:55.077Z,11.41
2019-05-14T04:45:59.591Z,11.43
2019-05-14T04:47:22.846Z,11.46
2019-05-14T04:48:27.132Z,11.47
2019-05-14T04:49:19.905Z,11.48
2019-05-14T04:50:25.698Z,11.43
2019-05-14T04:51:31.545Z,11.41
2019-05-14T04:52:36.008Z,11.34
2019-05-14T04:53:40.834Z,11.35
2019-05-14T04:54:45.318Z,11.37
2019-05-14T04:55:49.971Z,11.41
2019-05-14T04:56:54.410Z,11.44
2019-05-14T04:57:59.320Z,11.44
2019-05-14T04:59:04.312Z,11.49
2019-05-14T05:00:12.323Z,11.43
2019-05-14T05:01:16.161Z,11.49
2019-05-14T05:02:20.713Z,11.49
2019-05-14T05:03:25.239Z,11.49
2019-05-14T05:04:30.355Z,11.41
2019-05-14T05:05:39.116Z,11.52
2019-05-14T05:06:42.091Z,11.48
2019-05-14T05:07:49.190Z,11.41
2019-05-14T05:08:52.786Z,11.40
2019-05-14T05:09:59.312Z,11.45
2019-05-14T05:11:03.477Z,11.43
2019-05-14T05:12:09.093Z,11.47
2019-05-14T05:13:14.937Z,11.45
2019-05-14T05:14:20.396Z,11.45
2019-05-14T05:15:25.729Z,11.44
2019-05-14T05:16:30.091Z,11.47
2019-05-14T05:17:44.178Z,11.46
2019-05-14T05:18:40.690Z,11.53
2019-05-14T05:19:46.046Z,11.58
2019-05-14T05:20:50.921Z,11.60
2019-05-14T05:21:55.621Z,11.57
2019-05-14T05:23:00.081Z,11.58
2019-05-14T05:24:04.817Z,11.63
2019-05-14T05:25:09.568Z,11.58
2019-05-14T05:26:14.136Z,11.54
2019-05-14T05:27:18.658Z,11.61
2019-05-14T05:28:23.327Z,11.64
2019-05-14T05:29:28.594Z,11.72
2019-05-14T05:30:34.897Z,11.77
2019-05-14T05:31:39.273Z,11.71
2019-05-14T05:32:43.797Z,11.71
2019-05-14T05:33:48.958Z,11.76
2019-05-14T05:34:53.849Z,11.83
2019-05-14T05:35:59.276Z,11.88
2019-05-14T05:37:04.560Z,11.91
2019-05-14T05:38:09.038Z,11.92
2019-05-14T05:39:13.648Z,11.96
2019-05-14T05:40:19.732Z,12.01
2019-05-14T05:41:24.611Z,12.06
2019-05-14T05:42:29.514Z,12.06
2019-05-14T05:43:34.183Z,12.07
2019-05-14T05:44:39.320Z,12.11
2019-05-14T05:45:44.248Z,12.13
2019-05-14T05:46:49.372Z,12.13
2019-05-14T05:47:58.187Z,12.13
2019-05-14T05:49:00.392Z,12.12
2019-05-14T05:50:08.789Z,12.16
2019-05-14T05:51:13.262Z,12.16
2019-05-14T05:52:19.169Z,12.21
2019-05-14T05:53:23.612Z,12.24
2019-05-14T05:54:29.189Z,12.29
2019-05-14T05:55:34.005Z,12.30
2019-05-14T05:56:38.907Z,12.32
2019-05-14T05:57:43.411Z,12.37
2019-05-14T05:58:48.992Z,12.36
2019-05-14T05:59:53.534Z,12.32
2019-05-14T06:00:58.995Z,12.32
2019-05-14T06:02:03.710Z,12.38
2019-05-14T06:03:10.895Z,12.36
2019-05-14T06:04:14.513Z,12.40
2019-05-14T06:05:19.480Z,12.43
2019-05-14T06:06:23.888Z,12.44
2019-05-14T06:07:28.864Z,12.47
2019-05-14T06:08:33.501Z,12.44
2019-05-14T06:09:38.409Z,12.48
2019-05-14T06:10:43.122Z,12.51
2019-05-14T06:11:48.764Z,12.50
2019-05-14T06:12:53.316Z,12.54
2019-05-14T06:13:58.882Z,12.57
2019-05-14T06:15:05.392Z,12.59
2019-05-14T06:16:09.933Z,12.59
2019-05-14T06:17:14.332Z,12.68
2019-05-14T06:18:21.975Z,12.71
2019-05-14T06:19:25.054Z,12.70
2019-05-14T06:20:29.606Z,12.71
2019-05-14T06:21:34.005Z,12.74
2019-05-14T06:22:38.823Z,12.78
2019-05-14T06:23:43.241Z,12.82
2019-05-14T06:24:48.674Z,12.87
2019-05-14T06:25:54.153Z,12.89
2019-05-14T06:26:58.899Z,12.87
2019-05-14T06:28:03.483Z,12.88
2019-05-14T06:29:08.566Z,12.89
2019-05-14T06:30:13.269Z,12.92
2019-05-14T06:31:19.292Z,12.88
2019-05-14T06:32:24.952Z,12.88
2019-05-14T06:33:29.525Z,12.90
2019-05-14T06:34:34.150Z,12.92
2019-05-14T06:35:39.621Z,12.96
2019-05-14T06:36:44.420Z,13.01
2019-05-14T06:37:49.146Z,13.03
2019-05-14T06:38:53.589Z,13.03
2019-05-14T06:39:58.523Z,13.00
2019-05-14T06:41:03.002Z,13.08
2019-05-14T06:42:08.821Z,13.09
2019-05-14T06:43:13.299Z,13.10
2019-05-14T06:44:18.729Z,13.12
2019-05-14T06:45:23.330Z,13.13
2019-05-14T06:46:28.391Z,13.14
2019-05-14T06:47:33.031Z,13.21
2019-05-14T06:48:39.575Z,13.26
2019-05-14T06:49:43.718Z,13.32
2019-05-14T06:50:50.453Z,13.34
2019-05-14T06:51:54.885Z,13.38
2019-05-14T06:52:59.426Z,13.40
2019-05-14T06:54:04.723Z,13.42
2019-05-14T06:55:09.277Z,13.46
2019-05-14T06:56:13.644Z,13.49
2019-05-14T06:57:18.725Z,13.50
2019-05-14T06:58:23.083Z,13.52
2019-05-14T06:59:28.801Z,13.56
2019-05-14T07:00:33.335Z,13.60
2019-05-14T07:01:38.464Z,13.62
2019-05-14T07:02:44.314Z,13.65
2019-05-14T07:03:49.362Z,13.69
2019-05-14T07:04:53.828Z,13.74
2019-05-14T07:05:59.549Z,13.77
2019-05-14T07:07:05.189Z,13.81
2019-05-14T07:08:09.773Z,13.86
2019-05-14T07:09:14.207Z,13.91
2019-05-14T07:10:19.593Z,13.95
2019-05-14T07:11:25.365Z,13.97
2019-05-14T07:12:29.990Z,14.02
2019-05-14T07:13:34.556Z,14.04
2019-05-14T07:14:39.156Z,14.02
2019-05-14T07:15:43.465Z,14.06
2019-05-14T07:16:48.647Z,14.08
2019-05-14T07:17:53.250Z,14.05
2019-05-14T07:18:59.080Z,14.04
2019-05-14T07:20:05.220Z,14.03
2019-05-14T07:21:09.757Z,14.10
2019-05-14T07:22:14.154Z,14.13
2019-05-14T07:23:19.426Z,14.19
2019-05-14T07:24:23.985Z,14.25
2019-05-14T07:25:28.819Z,14.29
2019-05-14T07:26:34.286Z,14.27
2019-05-14T07:27:39.453Z,14.23
2019-05-14T07:28:43.895Z,14.23
2019-05-14T07:29:49.347Z,14.23
2019-05-14T07:30:54.895Z,14.24
2019-05-14T07:31:59.484Z,14.30
2019-05-14T07:33:04.871Z,14.34
2019-05-14T07:34:09.408Z,14.39
2019-05-14T07:35:14.252Z,14.41
2019-05-14T07:36:19.172Z,14.41
2019-05-14T07:37:24.675Z,14.42
2019-05-14T07:38:29.231Z,14.46
2019-05-14T07:39:33.582Z,14.50
2019-05-14T07:40:39.427Z,14.48
2019-05-14T07:41:43.783Z,14.47
2019-05-14T07:42:48.846Z,14.53
2019-05-14T07:43:53.348Z,14.58
2019-05-14T07:44:58.898Z,14.65
2019-05-14T07:46:03.508Z,14.70
2019-05-14T07:47:09.371Z,14.75
2019-05-14T07:48:13.813Z,14.77
2019-05-14T07:49:19.392Z,14.80
2019-05-14T07:50:23.897Z,14.86
2019-05-14T07:51:28.747Z,14.92
2019-05-14T07:52:33.109Z,14.98
2019-05-14T07:53:41.605Z,15.04
2019-05-14T07:54:43.750Z,15.05
2019-05-14T07:55:49.306Z,15.09
2019-05-14T07:56:53.946Z,15.12
2019-05-14T07:57:59.034Z,15.15
2019-05-14T07:59:03.460Z,15.20
2019-05-14T08:00:09.108Z,15.17
2019-05-14T08:01:13.532Z,15.20
2019-05-14T08:02:19.595Z,15.25
2019-05-14T08:03:24.196Z,15.30
2019-05-14T08:04:29.167Z,15.30
2019-05-14T08:05:33.578Z,15.30
2019-05-14T08:06:39.363Z,15.29
2019-05-14T08:07:44.843Z,15.30
2019-05-14T08:08:49.614Z,15.38
2019-05-14T08:09:54.988Z,15.40
2019-05-14T08:11:01.871Z,15.40
2019-05-14T08:12:06.360Z,15.37
2019-05-14T08:13:10.969Z,15.41
2019-05-14T08:14:15.395Z,15.45
2019-05-14T08:15:22.507Z,15.49
2019-05-14T08:16:28.603Z,15.51
2019-05-14T08:17:32.536Z,15.53
2019-05-14T08:18:39.310Z,15.57
2019-05-14T08:19:43.128Z,15.64
2019-05-14T08:20:48.631Z,15.69
2019-05-14T08:21:53.441Z,15.70
2019-05-14T08:22:58.306Z,15.75
2019-05-14T08:24:02.916Z,15.79
2019-05-14T08:25:09.353Z,15.79
2019-05-14T08:26:15.030Z,15.80
2019-05-14T08:27:19.391Z,15.86
2019-05-14T08:28:24.143Z,15.95
2019-05-14T08:29:28.757Z,15.96
2019-05-14T08:30:33.455Z,15.96
2019-05-14T08:31:38.464Z,15.97
2019-05-14T08:32:43.025Z,15.99
2019-05-14T08:33:48.877Z,15.99
2019-05-14T08:34:53.748Z,16.00
2019-05-14T08:35:58.386Z,16.02
2019-05-14T08:37:04.272Z,16.07
2019-05-14T08:38:12.019Z,16.10
2019-05-14T08:39:18.392Z,16.17
2019-05-14T08:40:21.662Z,16.22
2019-05-14T08:41:28.649Z,16.30
2019-05-14T08:42:33.965Z,16.31
2019-05-14T08:43:39.667Z,16.38
2019-05-14T08:44:44.297Z,16.45
2019-05-14T08:45:48.988Z,16.48
2019-05-14T08:46:53.382Z,16.53
2019-05-14T08:47:58.664Z,16.60
2019-05-14T08:49:04.934Z,16.65
2019-05-14T08:50:09.524Z,16.69
2019-05-14T08:51:14.024Z,16.72
2019-05-14T08:52:19.206Z,16.77
2019-05-14T08:53:23.867Z,16.80
2019-05-14T08:54:28.640Z,16.79
2019-05-14T08:55:32.974Z,16.81
2019-05-14T08:56:38.884Z,16.83
2019-05-14T08:57:44.460Z,16.85
2019-05-14T08:58:49.600Z,16.82
2019-05-14T08:59:54.156Z,16.79
2019-05-14T09:00:58.967Z,16.81
2019-05-14T09:02:06.540Z,16.72
2019-05-14T09:03:09.605Z,16.83
2019-05-14T09:04:13.982Z,16.91
2019-05-14T09:05:18.692Z,16.97
2019-05-14T09:06:23.206Z,17.02
2019-05-14T09:07:28.976Z,17.02
2019-05-14T09:08:33.457Z,17.06
2019-05-14T09:09:38.300Z,17.05
2019-05-14T09:10:42.916Z,17.07
2019-05-14T09:11:50.398Z,17.09
2019-05-14T09:12:53.595Z,17.13
2019-05-14T09:13:59.462Z,17.18
2019-05-14T09:15:05.843Z,17.26
2019-05-14T09:16:10.507Z,17.26
2019-05-14T09:17:15.066Z,17.28
2019-05-14T09:18:19.555Z,17.31
2019-05-14T09:19:23.987Z,17.34
2019-05-14T09:20:29.035Z,17.36
2019-05-14T09:21:33.532Z,17.35
2019-05-14T09:22:39.804Z,17.39
2019-05-14T09:23:44.424Z,17.45
2019-05-14T09:24:49.339Z,17.47
2019-05-14T09:25:54.757Z,17.52
2019-05-14T09:26:59.505Z,17.59
2019-05-14T09:28:04.774Z,17.64
2019-05-14T09:29:19.576Z,17.68
2019-05-14T09:30:15.360Z,17.73
2019-05-14T09:31:20.193Z,17.75
2019-05-14T09:32:24.626Z,17.83
2019-05-14T09:33:29.802Z,17.85
2019-05-14T09:34:35.274Z,17.91
2019-05-14T09:35:39.815Z,17.94
2019-05-14T09:36:44.180Z,18.00
2019-05-14T09:37:51.366Z,18.06
2019-05-14T09:38:54.907Z,18.11
2019-05-14T09:39:59.510Z,18.12
2019-05-14T09:41:10.522Z,18.16
2019-05-14T09:42:10.819Z,18.18
2019-05-14T09:43:18.116Z,18.21
2019-05-14T09:44:22.493Z,18.25
2019-05-14T09:45:28.264Z,18.29
2019-05-14T09:46:32.932Z,18.31
2019-05-14T09:47:38.964Z,18.36
2019-05-14T09:48:43.899Z,18.38
2019-05-14T09:49:49.473Z,18.40
2019-05-14T09:50:54.036Z,18.43
2019-05-14T09:51:58.570Z,18.49
2019-05-14T09:53:03.189Z,18.53
2019-05-14T09:54:08.526Z,18.58
2019-05-14T09:55:13.282Z,18.63
2019-05-14T09:56:18.715Z,18.65
2019-05-14T09:57:23.529Z,18.64
2019-05-14T09:58:28.982Z,18.69
2019-05-14T09:59:33.793Z,18.71
2019-05-14T10:00:39.098Z,18.73
2019-05-14T10:01:44.067Z,18.81
2019-05-14T10:02:49.442Z,18.78
2019-05-14T10:03:54.203Z,18.80
2019-05-14T10:04:59.837Z,18.85
2019-05-14T10:06:05.462Z,18.88
2019-05-14T10:07:09.903Z,18.94
2019-05-14T10:08:14.584Z,18.97
2019-05-14T10:09:18.940Z,19.02
2019-05-14T10:10:23.563Z,19.06
2019-05-14T10:11:28.779Z,19.07
2019-05-14T10:12:42.546Z,19.13
2019-05-14T10:13:41.043Z,19.10
2019-05-14T10:14:48.535Z,19.10
2019-05-14T10:15:52.202Z,19.17
2019-05-14T10:16:58.355Z,19.21
2019-05-14T10:18:03.053Z,19.26
2019-05-14T10:19:07.654Z,19.30
2019-05-14T10:20:12.012Z,19.34
2019-05-14T10:21:18.992Z,19.38
2019-05-14T10:22:22.721Z,19.44
2019-05-14T10:23:28.410Z,19.47
2019-05-14T10:24:33.032Z,19.50
2019-05-14T10:25:40.180Z,19.53
2019-05-14T10:26:43.885Z,19.60
2019-05-14T10:27:48.704Z,19.60
2019-05-14T10:28:54.001Z,19.66
2019-05-14T10:29:58.958Z,19.73
2019-05-14T10:31:03.857Z,19.78
2019-05-14T10:32:09.042Z,19.84
2019-05-14T10:33:15.039Z,19.88
2019-05-14T10:34:19.900Z,19.82
2019-05-14T10:35:25.120Z,19.82
2019-05-14T10:36:30.191Z,19.84
2019-05-14T10:37:35.693Z,19.85
2019-05-14T10:38:40.230Z,19.86
2019-05-14T10:39:44.804Z,19.91
2019-05-14T10:40:49.434Z,19.98
2019-05-14T10:41:53.789Z,20.04
2019-05-14T10:42:58.366Z,20.05
2019-05-14T10:44:04.528Z,20.10
2019-05-14T10:45:12.673Z,20.12
2019-05-14T10:46:15.171Z,20.20
2019-05-14T10:47:19.713Z,20.20
2019-05-14T10:48:24.460Z,20.26
2019-05-14T10:49:29.955Z,20.34
2019-05-14T10:50:44.814Z,20.38
2019-05-14T10:51:40.905Z,20.39
2019-05-14T10:52:45.341Z,20.45
2019-05-14T10:53:50.162Z,20.42
2019-05-14T10:54:56.149Z,20.42
2019-05-14T10:56:00.844Z,20.47
2019-05-14T10:57:05.261Z,20.50
2019-05-14T10:58:09.868Z,20.49
2019-05-14T10:59:14.475Z,20.53
2019-05-14T11:00:19.776Z,20.48
2019-05-14T11:01:24.201Z,20.45
2019-05-14T11:02:29.280Z,20.48
2019-05-14T11:03:33.682Z,20.50
2019-05-14T11:04:39.096Z,20.49
2019-05-14T11:05:43.790Z,20.49
2019-05-14T11:06:49.106Z,20.49
2019-05-14T11:07:53.624Z,20.41
2019-05-14T11:08:58.171Z,20.37
2019-05-14T11:10:02.666Z,20.39
2019-05-14T11:11:10.265Z,20.35
2019-05-14T11:12:13.535Z,20.32
2019-05-14T11:13:18.940Z,20.37
2019-05-14T11:14:23.654Z,20.33
2019-05-14T11:15:28.537Z,20.32
2019-05-14T11:16:33.141Z,20.32
2019-05-14T11:17:40.480Z,20.28
2019-05-14T11:18:43.928Z,20.38
2019-05-14T11:19:48.468Z,20.45
2019-05-14T11:20:52.835Z,20.52
2019-05-14T11:21:57.897Z,20.57
2019-05-14T11:23:02.426Z,20.64
2019-05-14T11:24:09.434Z,20.71
2019-05-14T11:25:13.177Z,20.74
2019-05-14T11:26:20.309Z,20.79
2019-05-14T11:27:24.669Z,20.77
2019-05-14T11:28:29.397Z,20.70
2019-05-14T11:29:33.890Z,20.68
2019-05-14T11:30:39.241Z,20.74
2019-05-14T11:31:43.691Z,20.74
2019-05-14T11:32:49.189Z,20.74
2019-05-14T11:33:53.768Z,20.77
2019-05-14T11:34:59.393Z,20.80
2019-05-14T11:36:03.763Z,20.82
2019-05-14T11:37:08.663Z,20.83
2019-05-14T11:38:28.802Z,20.76
2019-05-14T11:39:19.639Z,20.78
2019-05-14T11:40:24.761Z,20.78
2019-05-14T11:41:29.572Z,20.78
2019-05-14T11:42:34.036Z,20.79
2019-05-14T11:43:39.796Z,20.86
2019-05-14T11:44:44.514Z,20.78
2019-05-14T11:45:49.025Z,20.83
2019-05-14T11:46:57.826Z,20.85
2019-05-14T11:47:59.731Z,20.89
2019-05-14T11:49:04.934Z,20.95
2019-05-14T11:50:10.063Z,21.01
2019-05-14T11:51:14.593Z,21.03
2019-05-14T11:52:19.164Z,21.05
2019-05-14T11:53:23.670Z,21.11
2019-05-14T11:54:29.193Z,21.17
2019-05-14T11:55:33.717Z,21.22
2019-05-14T11:56:41.948Z,21.23
2019-05-14T11:57:44.451Z,21.24
2019-05-14T11:58:49.065Z,21.28
2019-05-14T11:59:53.760Z,21.23
2019-05-14T12:00:58.598Z,21.24
2019-05-14T12:02:03.026Z,21.23
2019-05-14T12:03:09.245Z,21.14
2019-05-14T12:04:13.641Z,21.03
2019-05-14T12:05:18.945Z,20.97
2019-05-14T12:06:23.649Z,20.95
2019-05-14T12:07:28.188Z,20.97
2019-05-14T12:08:32.679Z,20.95
2019-05-14T12:09:39.145Z,20.98
2019-05-14T12:10:43.834Z,21.01
2019-05-14T12:11:48.453Z,21.04
2019-05-14T12:12:52.813Z,21.00
2019-05-14T12:13:59.911Z,20.95
2019-05-14T12:15:04.585Z,20.91
2019-05-14T12:16:09.127Z,20.91
2019-05-14T12:17:13.606Z,20.95
2019-05-14T12:18:18.685Z,20.97
2019-05-14T12:19:23.148Z,21.02
2019-05-14T12:20:29.684Z,21.07
2019-05-14T12:21:33.748Z,21.08
2019-05-14T12:22:39.261Z,21.15
2019-05-14T12:23:44.077Z,21.14
2019-05-14T12:24:49.395Z,21.16
2019-05-14T12:25:55.404Z,21.21
2019-05-14T12:27:00.026Z,21.27
2019-05-14T12:28:05.017Z,21.32
2019-05-14T12:29:10.019Z,21.34
2019-05-14T12:30:14.705Z,21.33
2019-05-14T12:31:19.246Z,21.24
2019-05-14T12:32:23.687Z,21.25
2019-05-14T12:33:30.830Z,21.20
2019-05-14T12:34:34.277Z,21.12
2019-05-14T12:35:40.247Z,21.17
2019-05-14T12:36:44.846Z,21.17
2019-05-14T12:37:49.429Z,21.18
2019-05-14T12:38:53.863Z,21.17
2019-05-14T12:39:59.090Z,21.17
2019-05-14T12:41:03.834Z,21.21
2019-05-14T12:42:10.610Z,21.12
2019-05-14T12:43:14.698Z,21.17
2019-05-14T12:44:19.785Z,21.09
2019-05-14T12:45:24.296Z,21.15
2019-05-14T12:46:29.587Z,21.16
2019-05-14T12:47:34.069Z,21.14
2019-05-14T12:48:39.154Z,21.18
2019-05-14T12:49:43.689Z,21.15
2019-05-14T12:50:49.026Z,21.11
2019-05-14T12:51:53.505Z,20.95
2019-05-14T12:52:58.867Z,20.95
2019-05-14T12:54:03.425Z,20.96
2019-05-14T12:55:09.117Z,21.00
2019-05-14T12:56:14.023Z,21.02
2019-05-14T12:57:19.636Z,20.99
2019-05-14T12:58:24.029Z,20.96
2019-05-14T12:59:28.686Z,20.97
2019-05-14T13:00:33.064Z,20.91
2019-05-14T13:01:37.805Z,20.95
2019-05-14T13:02:42.162Z,20.88
2019-05-14T13:03:48.524Z,21.05
2019-05-14T13:04:52.977Z,21.12
2019-05-14T13:05:58.603Z,21.19
2019-05-14T13:07:03.006Z,21.24
2019-05-14T13:08:11.257Z,21.24
2019-05-14T13:09:13.737Z,21.25
2019-05-14T13:10:18.877Z,21.22
2019-05-14T13:11:23.461Z,21.23
2019-05-14T13:12:29.752Z,21.24
2019-05-14T13:13:34.215Z,21.17
2019-05-14T13:14:39.600Z,21.11
2019-05-14T13:15:44.135Z,21.12
2019-05-14T13:16:48.849Z,21.15
2019-05-14T13:17:53.246Z,21.17
2019-05-14T13:18:59.840Z,21.16
2019-05-14T13:20:13.187Z,21.13
2019-05-14T13:21:14.402Z,21.10
2019-05-14T13:22:30.272Z,21.15
2019-05-14T13:23:25.061Z,21.20
2019-05-14T13:24:29.442Z,21.25
2019-05-14T13:25:34.055Z,21.27
2019-05-14T13:26:38.980Z,21.26
2019-05-14T13:27:43.803Z,21.27
2019-05-14T13:28:50.783Z,21.22
2019-05-14T13:29:54.636Z,21.20
2019-05-14T13:30:59.762Z,21.15
2019-05-14T13:32:05.217Z,21.09
2019-05-14T13:33:09.566Z,21.11
2019-05-14T13:34:14.132Z,21.12
2019-05-14T13:35:19.618Z,21.11
2019-05-14T13:36:24.503Z,21.06
2019-05-14T13:37:28.930Z,20.95
2019-05-14T13:38:33.470Z,20.92
2019-05-14T13:39:39.913Z,20.81
2019-05-14T13:40:45.641Z,20.75
2019-05-14T13:41:50.022Z,20.74
2019-05-14T13:42:54.541Z,20.79
2019-05-14T13:43:59.070Z,20.80
2019-05-14T13:45:10.223Z,20.84
2019-05-14T13:46:15.311Z,20.84
2019-05-14T13:47:21.060Z,20.85
2019-05-14T13:48:25.542Z,20.83
2019-05-14T13:49:30.435Z,20.88
2019-05-14T13:50:34.846Z,20.92
2019-05-14T13:51:39.338Z,20.98
2019-05-14T13:52:58.397Z,20.88
2019-05-14T13:53:50.235Z,20.87
2019-05-14T13:54:54.603Z,20.89
2019-05-14T13:55:59.198Z,20.92
2019-05-14T13:57:04.508Z,20.91
2019-05-14T13:58:09.696Z,20.89